Station: Oenpelli Airport  

  Atmospheric Gas Attenuation - ITU Rec 676-11   ----------------- dB/100km -----------------
Date Time Temp RH % AH g/m3 Dew Point Wind Direction Speed kph Gust kph Barometer mB Rainfall Since 9am 24GHz 47GHz 76GHz 122GHz 134GHz 241GHz
02/09 02:20 22.9 79 16.14 19.1 6 7 1016 0 35.1 35.8 66.1 174.6 187.7 651.4
02/09 02:10 23.1 78 16.12 19.1 4 7 1016.1 0 35.0 35.7 65.8 173.9 186.9 648.7
02/09 02:00 23.3 78 16.31 19.2 6 6 1016.2 0 35.4 35.9 66.5 175.8 189.2 656.8
02/09 01:50 23.4 78 16.4 19.3 4 6 1016.3 0 35.6 36.1 66.9 176.6 190.3 660.6
02/09 01:40 23.5 78 16.49 19.4 6 6 1016.4 0 35.8 36.2 67.2 177.5 191.4 664.4
02/09 01:30 23.8 77 16.56 19.5 4 6 1016.5 0 35.9 36.2 67.2 177.7 191.7 665.5
02/09 01:20 24.1 76 16.63 19.6 6 7 1016.6 0 36.0 36.2 67.3 177.8 192.0 666.5
02/09 01:10 24.2 76 16.72 19.7 9 13 1016.6 0 36.2 36.3 67.6 178.7 193.1 670.3
02/09 01:00 24.3 76 16.82 19.8 9 13 1016.7 0 36.4 36.5 68.0 179.7 194.3 674.6
02/09 00:50 24.5 76 17.01 20 9 13 1016.8 0 36.8 36.7 68.7 181.5 196.6 682.6
02/09 00:40 24.6 76 17.1 20.1 11 15 1016.9 0 36.9 36.8 69.0 182.3 197.7 686.4
02/09 00:30 24.7 76 17.2 20.2 11 19 1017.1 0 37.1 37.0 69.4 183.3 198.9 690.8
02/09 00:20 24.7 76 17.2 20.2 11 19 1017.1 0 37.1 37.0 69.4 183.3 198.9 690.8
02/09 00:10 24.8 75 17.07 20.1 11 17 1017.1 0 36.9 36.7 68.7 181.5 196.7 683.2
02/09 00:00 24.8 75 17.07 20.1 13 17 1017.1 0 36.9 36.7 68.7 181.5 196.7 683.2
01/09 23:50 24.9 74 16.94 19.9 11 17 1017.2 0 36.6 36.4 68.0 179.8 194.6 675.6
01/09 23:40 25 73 16.8 19.8 11 17 1017.1 0 36.3 36.1 67.3 177.8 192.3 667.6
01/09 23:30 25.1 72 16.67 19.7 11 17 1017.2 0 36.0 35.9 66.6 176.1 190.1 660.2
01/09 23:20 25.4 71 16.71 19.8 11 19 1017.3 0 36.0 35.8 66.6 175.9 190.0 659.7
01/09 23:10 25.5 70 16.57 19.6 15 19 1017.3 0 35.7 35.5 65.9 174.0 187.7 651.7
01/09 23:00 25.6 69 16.43 19.5 13 17 1017.2 0 35.4 35.2 65.2 172.1 185.4 643.8
01/09 22:50 25.7 69 16.52 19.6 15 24 1017.3 0 35.6 35.4 65.5 173.0 186.5 647.6
01/09 22:40 25.8 69 16.61 19.7 19 30 1017.4 0 35.8 35.5 65.8 173.8 187.5 651.3
01/09 22:30 25.4 68 16.01 19.1 19 26 1017.4 0 34.6 34.6 63.5 167.7 179.9 624.7
01/09 22:20 25.2 63 14.67 17.7 9 15 1017.1 0 31.8 32.3 57.9 152.8 161.6 560.8
01/09 22:10 25 63 14.5 17.5 7 11 1016.8 0 31.4 32.1 57.3 151.3 159.7 554.0
01/09 22:00 25.1 63 14.58 17.6 6 9 1016.7 0 31.6 32.2 57.6 152.0 160.5 557.0
01/09 21:50 25.2 63 14.67 17.7 6 9 1016.6 0 31.8 32.3 57.9 152.8 161.6 560.6
01/09 21:40 25.4 62 14.6 17.6 9 13 1016.5 0 31.6 32.1 57.4 151.6 160.2 555.8
01/09 21:30 25.5 61 14.44 17.4 7 11 1016.4 0 31.3 31.8 56.7 149.6 157.8 547.4
01/09 21:20 25.5 59 13.97 16.9 7 11 1016.2 0 30.3 31.0 54.7 144.4 151.4 525.2
01/09 21:10 25.5 58 13.73 16.6 7 11 1016.1 0 29.8 30.6 53.8 141.8 148.2 514.0
01/09 21:00 25.5 57 13.49 16.4 9 13 1016 0 29.3 30.2 52.8 139.2 145.0 502.8
01/09 20:50 25.5 56 13.26 16.1 7 11 1015.8 0 28.8 29.9 51.9 136.7 141.9 492.2
01/09 20:40 26.2 53 13.05 15.9 9 13 1015.7 0 28.3 29.3 50.6 133.3 137.9 478.3
01/09 20:30 26.6 50 12.59 15.3 6 13 1015.6 0 27.3 28.4 48.5 127.9 131.4 455.4
01/09 20:20 27.1 47 12.16 14.8 9 15 1015.4 0 26.4 27.6 46.6 122.7 125.1 433.7
01/09 20:10 27.5 45 11.91 14.5 9 13 1015.2 0 25.8 27.1 45.4 119.5 121.4 420.7
01/09 20:00 27.6 40 10.64 12.8 9 17 1015 0 23.2 25.2 40.7 107.0 106.0 366.8
01/09 19:50 28.8 30 8.52 9.5 6 11 1014.7 0 18.7 21.9 32.9 86.2 80.7 278.4
01/09 19:40 28.8 30 8.52 9.5 6 7 1014.5 0 18.7 21.9 32.9 86.2 80.7 278.3
01/09 19:30 29 30 8.62 9.7 6 9 1014.3 0 18.9 22.0 33.1 86.8 81.6 281.4
01/09 19:20 29.2 29 8.42 9.3 6 7 1014.1 0 18.5 21.7 32.4 84.9 79.2 273.1
01/09 19:10 29.7 28 8.36 9.3 6 7 1014 0 18.4 21.5 32.0 83.8 78.1 269.2
01/09 19:00 30.4 26 8.06 8.7 7 15 1013.9 0 17.7 20.9 30.8 80.6 74.3 256.0
01/09 18:50 30.7 26 8.19 9 9 17 1013.8 0 18.0 21.0 31.1 81.4 75.4 259.8
01/09 18:40 30.8 26 8.23 9.1 9 15 1013.7 0 18.0 21.0 31.2 81.6 75.7 260.9
01/09 18:30 30.6 27 8.46 9.5 7 13 1013.6 0 18.5 21.4 32.0 83.7 78.3 269.9
01/09 18:20 31.6 25 8.26 9.2 13 20 1013.5 0 18.1 20.9 30.9 81.1 75.3 259.5
01/09 18:10 31.8 25 8.35 9.3 11 20 1013.4 0 18.2 21.0 31.1 81.6 76.0 262.1
01/09 18:00 32.3 25 8.58 9.8 7 15 1013.3 0 18.7 21.1 31.7 83.0 77.9 268.8
01/09 17:50 32.5 23 7.98 8.7 13 22 1013.3 0 17.5 20.3 29.8 77.9 71.6 246.7
01/09 17:40 32.3 24 8.24 9.2 13 20 1013.2 0 18.0 20.7 30.6 80.2 74.4 256.5
01/09 17:30 32.3 25 8.58 9.8 9 19 1013.2 0 18.7 21.1 31.7 83.0 77.9 268.8
01/09 17:20 32.5 24 8.32 9.3 9 19 1013.2 0 18.2 20.8 30.8 80.7 75.0 258.8
01/09 17:10 33 24 8.55 9.7 11 17 1013.1 0 18.6 20.9 31.3 82.1 76.9 265.4
01/09 17:00 33.4 23 8.37 9.4 9 15 1013.1 0 18.2 20.6 30.6 80.2 74.7 257.8
01/09 16:50 34.1 21 7.92 8.7 13 22 1013.1 0 17.3 19.9 29.0 75.9 69.6 239.9
01/09 16:40 34.1 21 7.92 8.7 11 19 1013.1 0 17.3 19.9 29.0 75.9 69.6 239.9
01/09 16:30 34 20 7.51 7.9 13 20 1013.1 0 16.4 19.5 27.8 72.8 65.7 226.1
01/09 16:20 33.5 21 7.68 8.2 13 22 1013.1 0 16.8 19.8 28.5 74.6 67.8 233.3
01/09 16:10 33.5 22 8.04 8.9 11 24 1013.2 0 17.5 20.2 29.6 77.5 71.3 245.9
01/09 16:00 33.8 20 7.43 7.7 13 24 1013.2 0 16.3 19.4 27.7 72.3 65.1 223.9
01/09 15:50 34 20 7.51 7.9 13 17 1013.3 0 16.4 19.5 27.8 72.8 65.7 226.1
01/09 15:40 34.2 20 7.59 8 9 17 1013.3 0 16.6 19.5 28.0 73.3 66.3 228.3
01/09 15:30 34.3 19 7.25 7.4 15 22 1013.5 0 15.9 19.1 27.0 70.5 63.0 216.6
01/09 15:20 33.9 22 8.22 9.2 13 28 1013.5 0 17.9 20.4 30.0 78.6 72.8 251.1
01/09 15:10 34.1 20 7.55 8 13 17 1013.8 0 16.5 19.5 27.9 73.1 66.1 227.3
01/09 15:00 34.1 20 7.55 8 11 19 1013.8 0 16.5 19.5 27.9 73.1 66.1 227.3
01/09 14:50 33.9 21 7.84 8.5 15 28 1014 0 17.1 19.9 28.9 75.6 69.1 237.9
01/09 14:40 33.9 21 7.84 8.5 13 26 1014.1 0 17.1 19.9 28.9 75.6 69.1 237.9
01/09 14:30 33.8 20 7.43 7.7 11 26 1014.3 0 16.3 19.4 27.7 72.4 65.2 224.1
01/09 14:20 33.8 21 7.8 8.4 19 32 1014.5 0 17.0 19.9 28.8 75.4 68.8 236.9
01/09 14:10 34.5 20 7.71 8.3 13 20 1014.6 0 16.8 19.6 28.3 74.0 67.3 231.9
01/09 14:00 33.9 21 7.84 8.5 17 30 1014.8 0 17.1 19.9 28.9 75.6 69.1 238.1
01/09 13:50 34.1 22 8.3 9.4 17 24 1014.9 0 18.0 20.5 30.2 79.1 73.5 253.6
01/09 13:40 33.9 22 8.22 9.2 15 24 1015.1 0 17.9 20.4 30.0 78.7 72.9 251.4
01/09 13:30 34.1 22 8.3 9.4 9 19 1015.3 0 18.0 20.5 30.2 79.2 73.5 253.6
01/09 13:20 33.9 22 8.22 9.2 15 28 1015.5 0 17.9 20.4 30.1 78.7 72.9 251.5
01/09 13:10 33.8 22 8.17 9.1 15 24 1015.7 0 17.8 20.4 30.0 78.4 72.5 250.1
01/09 13:00 33.5 23 8.41 9.5 15 26 1015.9 0 18.3 20.7 30.8 80.7 75.2 259.5
01/09 12:50 33.8 23 8.54 9.8 17 28 1016.1 0 18.5 20.9 31.1 81.5 76.3 263.2
01/09 12:40 33.7 23 8.5 9.7 13 28 1016.3 0 18.5 20.8 31.0 81.3 76.0 262.1
01/09 12:30 34.1 22 8.3 9.4 17 30 1016.6 0 18.0 20.5 30.3 79.3 73.6 253.9
01/09 12:20 32.9 25 8.86 10.3 13 22 1016.8 0 19.2 21.5 32.5 85.1 80.5 277.8
01/09 12:10 32.8 25 8.81 10.2 15 28 1017.1 0 19.1 21.4 32.3 84.8 80.1 276.4
01/09 12:00 33.2 24 8.64 9.9 20 32 1017.3 0 18.8 21.1 31.7 83.0 77.9 269.0
01/09 11:50 33.4 24 8.73 10.1 15 26 1017.4 0 18.9 21.2 31.9 83.6 78.7 271.6
01/09 11:40 33.3 24 8.68 10 17 28 1017.7 0 18.9 21.2 31.8 83.3 78.3 270.2
01/09 11:30 33 25 8.9 10.4 15 22 1017.9 0 19.3 21.5 32.6 85.4 80.8 279.1
01/09 11:20 32.8 27 9.51 11.3 15 26 1018.1 0 20.6 22.4 34.6 90.8 87.5 302.3
01/09 11:10 32.1 28 9.51 11.3 15 26 1018.3 0 20.6 22.6 34.9 91.6 88.2 304.9
01/09 11:00 32.6 28 9.76 11.7 19 30 1018.6 0 21.1 22.8 35.5 93.3 90.4 312.5
01/09 10:50 32 29 9.79 11.7 17 26 1018.8 0 21.2 23.0 35.9 94.2 91.4 316.0
01/09 10:40 31.6 29 9.59 11.4 15 24 1019 0 20.8 22.8 35.4 92.9 89.7 310.0
01/09 10:30 31.4 29 9.48 11.2 19 28 1019.1 0 20.6 22.7 35.1 92.2 88.7 306.6
01/09 10:20 31.2 29 9.38 11.1 15 26 1019.3 0 20.4 22.6 34.9 91.6 87.9 303.6
01/09 10:10 31.1 31 9.98 12 17 26 1019.4 0 21.6 23.5 36.9 97.0 94.5 326.9
01/09 10:00 31 31 9.92 11.9 17 28 1019.5 0 21.5 23.4 36.8 96.6 94.0 325.0
01/09 09:50 30.5 31 9.66 11.5 19 30 1019.5 0 21.0 23.2 36.1 94.8 91.7 316.9

Last Refresh: 02-Sep-2026 02:32:52

Bureau of Meteorology